Time;durP1;ratioP1;P1;durP2;ratioP2;P2;SDS_P1;SDS_P2;PMS_P1;PMS_P2;Temp;Humidity;BMP_temperature;BMP_pressure;BME280_temperature;BME280_humidity;BME280_pressure;Samples;Min_cycle;Max_cycle;Signal;HPM_P1;HPM_P2
2022/01/27 00:04:14;;;;;;;;;56.75;43.50;;;;;6.52;62.09;103221.88;5084199;27;46279;-88
2022/01/27 00:06:41;;;;;;;;;56.75;44.25;;;;;6.55;61.69;103226.31;5100512;27;45492;-89
2022/01/27 00:09:22;;;;;;;;;57.25;42.50;;;;;6.53;62.01;103221.06;5093934;27;45418;-89
2022/01/27 00:11:48;;;;;;;;;62.00;45.25;;;;;6.55;61.73;103224.59;5099387;27;45341;-89
2022/01/27 00:14:15;;;;;;;;;51.75;40.50;;;;;6.55;61.55;103221.97;5100230;27;45696;-89
2022/01/27 00:16:51;;;;;;;;;58.50;40.50;;;;;6.58;61.85;103218.56;5098923;27;45992;-90
2022/01/27 00:19:16;;;;;;;;;59.50;45.50;;;;;6.55;62.23;103219.34;5100589;27;45443;-90
2022/01/27 00:21:41;;;;;;;;;55.75;42.50;;;;;6.60;62.00;103224.69;5114362;27;46020;-90
2022/01/27 00:24:07;;;;;;;;;61.50;47.25;;;;;6.57;62.19;103208.97;5116100;27;47810;-89
2022/01/27 00:26:32;;;;;;;;;65.25;44.25;;;;;6.60;61.73;103219.47;5100366;27;45427;-91
2022/01/27 00:28:58;;;;;;;;;60.75;45.75;;;;;6.59;61.61;103221.19;5099297;27;45481;-87
2022/01/27 00:31:23;;;;;;;;;60.50;46.00;;;;;6.55;61.57;103208.91;5097017;27;47138;-89
2022/01/27 00:33:51;;;;;;;;;63.00;45.75;;;;;6.55;61.67;103202.78;5097473;27;45387;-88
2022/01/27 00:36:17;;;;;;;;;55.50;43.25;;;;;6.55;61.47;103206.28;5099297;27;46052;-90
2022/01/27 00:38:43;;;;;;;;;54.00;41.75;;;;;6.57;61.56;103209.81;5100526;27;45301;-90
2022/01/27 00:41:08;;;;;;;;;56.25;41.00;;;;;6.58;61.95;103210.72;5097588;27;45561;-90
2022/01/27 00:43:34;;;;;;;;;57.75;44.50;;;;;6.58;61.79;103205.47;5094620;27;45614;-90
2022/01/27 00:46:00;;;;;;;;;61.50;46.75;;;;;6.59;61.94;103210.72;5097604;27;45481;-88
2022/01/27 00:48:25;;;;;;;;;59.75;44.50;;;;;6.61;62.33;103206.44;5096969;27;45613;-89
2022/01/27 00:50:57;;;;;;;;;61.25;45.75;;;;;6.58;61.42;103197.63;5096557;27;46115;-88
2022/01/27 00:56:25;;;;;;;;;60.00;46.75;;;;;6.60;61.94;103188.09;5076427;27;45464;-90
2022/01/27 00:59:33;;;;;;;;;62.50;47.00;;;;;6.61;61.58;103182.03;5100352;27;45296;-91
2022/01/27 01:01:48;;;;;;;;;62.00;46.25;;;;;6.61;61.67;103174.19;5085955;27;45555;-90
2022/01/27 01:04:14;;;;;;;;;64.50;47.75;;;;;6.63;62.03;103177.72;5099065;27;46188;-91
2022/01/27 01:06:43;;;;;;;;;67.50;51.00;;;;;6.62;62.02;103166.38;5103648;27;45481;-92
2022/01/27 01:10:22;;;;;;;;;65.50;49.25;;;;;6.62;61.81;103163.78;5102574;27;45264;-91
2022/01/27 01:14:38;;;;;;;;;65.75;49.25;;;;;6.60;62.03;103159.34;5089588;27;45357;-91
2022/01/27 01:19:46;;;;;;;;;57.75;45.25;;;;;6.61;61.97;103164.63;5099339;27;45246;-91
2022/01/27 01:32:59;;;;;;;;;65.75;50.75;;;;;6.60;62.17;103154.13;5090848;27;45302;-87
2022/01/27 01:35:35;;;;;;;;;64.50;46.50;;;;;6.61;61.98;103162.03;5102714;27;45495;-87
2022/01/27 01:38:01;;;;;;;;;65.50;48.25;;;;;6.64;61.85;103163.81;5103160;27;45570;-92
2022/01/27 01:40:26;;;;;;;;;65.00;51.25;;;;;6.63;61.93;103162.03;5101911;27;45316;-91
2022/01/27 01:42:51;;;;;;;;;66.00;50.75;;;;;6.58;61.51;103159.34;5101928;27;46045;-92
2022/01/27 01:45:19;;;;;;;;;68.00;51.50;;;;;6.61;62.01;103153.28;5102899;27;45488;-91
2022/01/27 01:47:47;;;;;;;;;68.00;48.25;;;;;6.58;61.95;103148.88;5103003;27;45753;-92
2022/01/27 01:50:13;;;;;;;;;66.50;50.00;;;;;6.57;61.94;103154.09;5101378;27;45299;-92
2022/01/27 01:52:39;;;;;;;;;66.25;50.25;;;;;6.54;62.23;103144.44;5103037;27;45332;-91
2022/01/27 01:55:07;;;;;;;;;61.25;48.50;;;;;6.56;62.31;103147.06;5103136;27;46538;-91
2022/01/27 01:57:33;;;;;;;;;68.00;49.50;;;;;6.55;62.11;103151.41;5102937;27;45382;-85
2022/01/27 01:59:59;;;;;;;;;72.50;51.75;;;;;6.55;62.39;103156.63;5102468;27;45624;-86
2022/01/27 02:02:25;;;;;;;;;71.75;50.50;;;;;6.57;62.50;103154.09;5102495;27;45280;-86
2022/01/27 02:04:51;;;;;;;;;64.25;50.50;;;;;6.54;62.52;103152.28;5102115;27;46128;-86
2022/01/27 02:17:59;;;;;;;;;71.50;50.50;;;;;6.52;62.17;103122.59;5105732;27;46071;-91
2022/01/27 02:20:25;;;;;;;;;63.50;50.00;;;;;6.52;62.57;103126.09;5101015;27;46666;-89
2022/01/27 02:22:50;;;;;;;;;67.00;49.00;;;;;6.45;62.08;103111.13;5101364;27;45526;-91
2022/01/27 02:25:17;;;;;;;;;69.00;49.75;;;;;6.48;62.26;103119.03;5106265;27;46301;-90
2022/01/27 02:27:43;;;;;;;;;62.00;49.50;;;;;6.48;62.36;103124.28;5111638;27;45766;-90
2022/01/27 02:30:09;;;;;;;;;67.50;50.00;;;;;6.43;62.33;103104.09;5100849;27;45394;-89
2022/01/27 02:32:34;;;;;;;;;63.00;48.50;;;;;6.45;62.65;103111.13;5102285;27;45462;-89
2022/01/27 02:35:00;;;;;;;;;68.25;51.50;;;;;6.43;62.55;103111.94;5101841;27;45567;-89
2022/01/27 02:37:26;;;;;;;;;60.75;44.00;;;;;6.46;62.44;103114.63;5101546;27;45773;-89
2022/01/27 02:39:51;;;;;;;;;66.00;49.75;;;;;6.41;62.03;103106.69;5100711;27;45171;-88
2022/01/27 02:42:26;;;;;;;;;70.25;49.25;;;;;6.44;62.64;103105.88;5101570;27;45774;-85
2022/01/27 02:45:00;;;;;;;;;65.00;49.00;;;;;6.44;62.60;103106.78;5101850;27;46375;-85
2022/01/27 02:47:26;;;;;;;;;70.00;49.50;;;;;6.41;62.55;103098.84;5102117;27;45553;-86
2022/01/27 02:49:51;;;;;;;;;68.50;50.25;;;;;6.38;62.65;103097.06;5101682;27;45293;-83
2022/01/27 02:52:17;;;;;;;;;61.75;46.25;;;;;6.38;62.56;103088.31;5101377;27;45412;-91
2022/01/27 02:54:43;;;;;;;;;59.75;47.00;;;;;6.40;62.38;103091.84;5100828;27;46884;-92
2022/01/27 02:57:10;;;;;;;;;62.75;48.25;;;;;6.41;62.57;103096.25;5102444;27;45370;-93
2022/01/27 02:59:35;;;;;;;;;62.50;47.50;;;;;6.37;62.58;103094.41;5101584;27;45310;-94
2022/01/27 03:02:01;;;;;;;;;67.00;48.75;;;;;6.38;62.73;103090.94;5109844;27;45382;-95
2022/01/27 03:04:26;;;;;;;;;68.25;45.25;;;;;6.37;62.45;103095.28;5107335;27;47104;-95
2022/01/27 03:06:53;;;;;;;;;63.25;47.75;;;;;6.37;62.96;103086.56;5100607;27;45438;-92
2022/01/27 03:09:18;;;;;;;;;57.00;42.25;;;;;6.39;62.76;103090.09;5102218;27;45285;-93
2022/01/27 03:11:47;;;;;;;;;59.75;46.00;;;;;6.42;62.82;103090.16;5100515;27;45430;-90
2022/01/27 03:14:18;;;;;;;;;65.00;46.75;;;;;6.39;62.67;103082.25;5101285;27;45481;-90
2022/01/27 03:16:44;;;;;;;;;63.00;47.00;;;;;6.37;62.26;103076.97;5110270;27;45517;-90
2022/01/27 03:19:10;;;;;;;;;67.25;48.75;;;;;6.37;62.54;103081.34;5101651;27;45392;-86
2022/01/27 03:21:36;;;;;;;;;62.75;46.25;;;;;6.39;62.42;103082.25;5101476;27;45282;-86
2022/01/27 03:24:01;;;;;;;;;65.00;48.25;;;;;6.33;62.50;103076.88;5101309;27;45278;-87
2022/01/27 03:26:27;;;;;;;;;60.00;44.25;;;;;6.34;62.85;103082.16;5101572;27;45230;-91
2022/01/27 03:28:53;;;;;;;;;63.25;46.00;;;;;6.33;62.71;103080.38;5100204;27;45438;-91
2022/01/27 03:31:19;;;;;;;;;59.75;45.25;;;;;6.34;62.55;103073.44;5091532;27;45393;-90
2022/01/27 03:33:45;;;;;;;;;63.25;45.25;;;;;6.35;62.55;103077.78;5097392;27;46813;-91
2022/01/27 03:36:11;;;;;;;;;56.00;43.25;;;;;6.35;62.55;103075.19;5101060;27;45318;-91
2022/01/27 03:38:37;;;;;;;;;60.25;45.00;;;;;6.39;62.44;103079.66;5106029;27;45337;-92
2022/01/27 03:41:06;;;;;;;;;63.25;47.50;;;;;6.38;62.81;103070.94;5100115;27;46945;-92
2022/01/27 03:43:32;;;;;;;;;59.50;43.50;;;;;6.41;62.66;103084.06;5116934;27;48218;-91
2022/01/27 03:45:58;;;;;;;;;60.50;44.25;;;;;6.37;62.42;103066.53;5101057;27;45799;-86
2022/01/27 03:48:24;;;;;;;;;62.50;45.75;;;;;6.38;62.65;103072.66;5100544;27;45304;-86
2022/01/27 03:50:50;;;;;;;;;63.25;47.00;;;;;6.39;62.75;103085.75;5100945;27;45695;-91
2022/01/27 03:53:15;;;;;;;;;59.25;45.00;;;;;6.39;62.80;103077.03;5104907;27;46439;-91
2022/01/27 03:55:41;;;;;;;;;65.75;45.75;;;;;6.42;62.82;103079.69;5116861;27;45385;-91
2022/01/27 03:58:07;;;;;;;;;68.50;48.25;;;;;6.42;62.33;103074.47;5101245;27;45528;-91
2022/01/27 04:00:33;;;;;;;;;63.50;44.50;;;;;6.43;62.79;103073.63;5100657;27;45455;-89
2022/01/27 04:03:06;;;;;;;;;60.25;43.75;;;;;6.40;62.38;103068.34;5100557;27;45398;-88
2022/01/27 04:05:39;;;;;;;;;50.00;37.75;;;;;6.36;62.45;103069.13;5099080;27;45854;-89
2022/01/27 04:08:06;;;;;;;;;56.75;44.50;;;;;6.37;62.19;103078.75;5100802;27;45266;-90
2022/01/27 04:10:32;;;;;;;;;54.50;41.50;;;;;6.37;62.52;103081.34;5100396;27;45569;-89
2022/01/27 04:12:58;;;;;;;;;61.25;44.00;;;;;6.35;62.46;103085.63;5116125;27;46637;-89
2022/01/27 04:15:23;;;;;;;;;60.00;44.75;;;;;6.33;62.02;103076.88;5100602;27;45329;-89
2022/01/27 04:17:49;;;;;;;;;51.00;38.75;;;;;6.29;62.26;103076.84;5100649;27;45335;-89
2022/01/27 04:20:14;;;;;;;;;57.50;44.00;;;;;6.33;62.57;103082.09;5099989;27;45297;-89
2022/01/27 04:22:40;;;;;;;;;57.50;42.50;;;;;6.27;62.24;103080.25;5100265;27;46343;-89
2022/01/27 04:25:06;;;;;;;;;62.75;46.00;;;;;6.27;62.59;103081.13;5100475;27;45408;-90
2022/01/27 04:27:35;;;;;;;;;58.25;44.25;;;;;6.26;62.61;103079.38;5090568;27;45420;-88
2022/01/27 04:30:02;;;;;;;;;56.75;43.00;;;;;6.24;62.28;103074.94;5096407;27;45539;-88
2022/01/27 04:32:34;;;;;;;;;62.00;45.25;;;;;6.26;62.71;103081.09;5100444;27;46575;-90
2022/01/27 04:35:03;;;;;;;;;60.25;44.50;;;;;6.26;62.90;103074.16;5099973;27;45773;-89
2022/01/27 04:37:32;;;;;;;;;61.25;43.00;;;;;6.25;62.32;103066.25;5099272;27;45338;-86
2022/01/27 04:40:08;;;;;;;;;56.50;42.75;;;;;6.26;62.61;103063.69;5099725;27;45287;-85
2022/01/27 04:42:47;;;;;;;;;58.00;43.25;;;;;6.28;62.50;103079.38;5098837;27;46979;-86
2022/01/27 04:45:15;;;;;;;;;60.75;41.50;;;;;6.30;62.89;103085.53;5100327;27;45423;-89
2022/01/27 04:47:46;;;;;;;;;57.75;43.00;;;;;6.30;62.76;103085.53;5100251;27;45226;-85
2022/01/27 04:50:11;;;;;;;;;57.25;42.25;;;;;6.29;62.45;103089.91;5110391;27;45300;-93
2022/01/27 04:52:41;;;;;;;;;57.50;43.25;;;;;6.28;62.38;103088.13;5110081;27;46158;-94
2022/01/27 04:55:10;;;;;;;;;59.00;42.25;;;;;6.26;62.56;103081.09;5100139;27;45257;-91
2022/01/27 04:57:39;;;;;;;;;53.50;41.75;;;;;6.22;62.54;103074.94;5099029;27;45385;-91
2022/01/27 05:00:07;;;;;;;;;54.50;42.75;;;;;6.22;62.44;103072.31;5099861;27;45283;-90
2022/01/27 05:02:49;;;;;;;;;57.50;43.00;;;;;6.23;62.91;103081.91;5089780;27;46468;-89
2022/01/27 05:05:14;;;;;;;;;58.00;42.25;;;;;6.20;62.66;103066.16;5097346;27;45384;-89
2022/01/27 05:07:40;;;;;;;;;53.00;40.75;;;;;6.22;62.83;103061.88;5100132;27;45653;-88
2022/01/27 05:10:15;;;;;;;;;50.25;37.75;;;;;6.24;62.70;103062.78;5099727;27;45443;-91
2022/01/27 05:12:48;;;;;;;;;61.25;43.50;;;;;6.27;62.75;103065.44;5097747;27;47394;-91
2022/01/27 05:15:13;;;;;;;;;56.75;40.50;;;;;6.27;62.77;103065.44;5099718;27;45752;-90
2022/01/27 05:17:39;;;;;;;;;60.50;43.50;;;;;6.24;62.39;103057.56;5100017;27;45394;-90
2022/01/27 05:20:05;;;;;;;;;51.50;40.50;;;;;6.26;62.81;103053.25;5099336;27;45526;-90
2022/01/27 05:22:34;;;;;;;;;56.50;41.25;;;;;6.23;62.91;103058.41;5099152;27;45328;-90
2022/01/27 05:24:59;;;;;;;;;53.75;39.50;;;;;6.22;62.64;103061.88;5099615;27;45226;-89
2022/01/27 05:27:24;;;;;;;;;51.25;39.25;;;;;6.22;63.12;103059.25;5098363;27;45231;-89
2022/01/27 05:29:52;;;;;;;;;48.75;37.00;;;;;6.24;62.63;103059.28;5098450;27;46120;-92
2022/01/27 05:32:18;;;;;;;;;52.25;37.75;;;;;6.22;62.61;103059.25;5102233;27;45444;-89
2022/01/27 05:34:43;;;;;;;;;51.50;39.00;;;;;6.21;62.52;103060.09;5099003;27;45520;-87
2022/01/27 05:37:09;;;;;;;;;52.25;42.50;;;;;6.23;62.50;103067.94;5098341;27;45448;-89
2022/01/27 05:39:34;;;;;;;;;55.75;40.25;;;;;6.20;62.53;103058.31;5099379;27;45589;-94
2022/01/27 05:41:59;;;;;;;;;50.25;40.25;;;;;6.21;63.04;103065.31;5101228;27;49363;-91
2022/01/27 05:44:25;;;;;;;;;56.75;42.00;;;;;6.18;62.93;103055.69;5110226;27;45300;-90
2022/01/27 05:46:50;;;;;;;;;49.25;38.00;;;;;6.24;63.11;103054.06;5097995;27;45435;-90
2022/01/27 05:49:16;;;;;;;;;52.50;38.75;;;;;6.21;62.69;103049.66;5100604;27;46044;-91
2022/01/27 05:51:41;;;;;;;;;53.75;37.75;;;;;6.24;62.86;103051.44;5109612;27;47798;-88
2022/01/27 05:54:06;;;;;;;;;56.50;39.25;;;;;6.24;62.78;103048.84;5099965;27;45338;-88
2022/01/27 05:56:32;;;;;;;;;51.25;38.75;;;;;6.26;62.45;103058.47;5092159;27;45268;-90
2022/01/27 05:58:57;;;;;;;;;51.75;40.00;;;;;6.23;62.70;103045.34;5102622;27;45390;-88
2022/01/27 06:01:22;;;;;;;;;55.00;41.25;;;;;6.25;62.64;103042.75;5102961;27;46260;-89
2022/01/27 06:03:48;;;;;;;;;51.75;41.00;;;;;6.26;62.68;103042.81;5102134;27;45252;-88
2022/01/27 06:06:13;;;;;;;;;51.25;38.00;;;;;6.25;62.88;103038.41;5102753;27;45194;-89
2022/01/27 06:08:39;;;;;;;;;54.50;41.00;;;;;6.23;63.06;103047.94;5102508;27;45375;-87
2022/01/27 06:11:05;;;;;;;;;59.75;44.00;;;;;6.25;62.71;103056.69;5102569;27;45238;-86
2022/01/27 06:13:31;;;;;;;;;57.00;41.00;;;;;6.25;63.13;103054.09;5102166;27;45415;-86
2022/01/27 06:15:56;;;;;;;;;56.00;41.25;;;;;6.29;62.91;103062.88;5102438;27;45375;-86
2022/01/27 06:18:22;;;;;;;;;56.75;43.75;;;;;6.27;63.27;103062.81;5102225;27;45329;-88
2022/01/27 06:20:47;;;;;;;;;42.75;35.00;;;;;6.27;62.93;103065.44;5101794;27;46264;-84
2022/01/27 06:23:13;;;;;;;;;55.00;39.75;;;;;6.29;62.63;103060.28;5103381;27;45279;-86
2022/01/27 06:25:39;;;;;;;;;48.00;39.25;;;;;6.30;62.72;103065.53;5092973;27;45429;-86
2022/01/27 06:28:05;;;;;;;;;56.75;43.00;;;;;6.29;62.89;103066.38;5099304;27;45472;-86
2022/01/27 06:30:34;;;;;;;;;49.25;38.00;;;;;6.27;62.59;103065.44;5100805;27;45455;-86
2022/01/27 06:33:04;;;;;;;;;50.25;39.00;;;;;6.29;62.78;103073.34;5099249;27;45468;-87
2022/01/27 06:35:29;;;;;;;;;50.75;39.75;;;;;6.29;63.18;103074.22;5095844;27;45437;-83
2022/01/27 06:37:55;;;;;;;;;56.00;42.50;;;;;6.28;62.89;103072.44;5097059;27;46367;-82
2022/01/27 06:40:20;;;;;;;;;53.00;42.50;;;;;6.31;63.08;103082.09;5100249;27;45471;-82
2022/01/27 06:42:46;;;;;;;;;54.75;40.25;;;;;6.29;62.68;103081.16;5091971;27;45575;-81
2022/01/27 06:45:12;;;;;;;;;45.25;38.50;;;;;6.30;62.53;103081.19;5097528;27;45426;-81
2022/01/27 06:47:37;;;;;;;;;52.50;42.00;;;;;6.30;62.84;103083.81;5084941;27;45151;-84
2022/01/27 06:50:04;;;;;;;;;51.75;40.00;;;;;6.30;62.78;103085.53;5100748;27;46221;-81
2022/01/27 06:52:29;;;;;;;;;54.00;42.00;;;;;6.29;62.71;103079.44;5101664;27;45797;-82
2022/01/27 06:54:55;;;;;;;;;56.50;39.75;;;;;6.31;62.82;103082.09;5101481;27;45502;-81
2022/01/27 06:57:22;;;;;;;;;50.50;38.00;;;;;6.31;62.63;103076.84;5101532;27;45458;-81
2022/01/27 06:59:48;;;;;;;;;59.50;43.75;;;;;6.34;62.78;103081.28;5097487;27;45444;-81
2022/01/27 07:02:13;;;;;;;;;53.25;39.50;;;;;6.34;63.10;103081.28;5101403;27;45814;-82
2022/01/27 07:04:39;;;;;;;;;57.00;42.50;;;;;6.33;62.99;103077.78;5113593;27;45435;-81
2022/01/27 07:07:04;;;;;;;;;51.00;38.25;;;;;6.36;63.03;103084.78;5108413;27;45980;-82
2022/01/27 07:09:29;;;;;;;;;54.50;39.50;;;;;6.34;62.71;103079.53;5101017;27;45502;-82
2022/01/27 07:11:55;;;;;;;;;55.00;41.50;;;;;6.40;63.25;103094.47;5099825;27;45316;-82
2022/01/27 07:14:20;;;;;;;;;55.25;41.00;;;;;6.37;62.78;103092.66;5100187;27;45280;-82
2022/01/27 07:16:45;;;;;;;;;53.25;39.50;;;;;6.38;62.65;103090.94;5099743;27;45257;-81
2022/01/27 07:19:11;;;;;;;;;63.25;43.50;;;;;6.40;63.02;103097.06;5093640;27;46071;-82
2022/01/27 07:21:36;;;;;;;;;53.00;43.00;;;;;6.38;62.68;103096.16;5097575;27;46011;-82
2022/01/27 07:24:02;;;;;;;;;55.75;39.75;;;;;6.39;62.41;103090.09;5099655;27;46901;-84
2022/01/27 07:26:27;;;;;;;;;53.75;39.75;;;;;6.39;62.88;103096.22;5101028;27;45308;-84
2022/01/27 07:28:53;;;;;;;;;58.25;41.75;;;;;6.40;63.01;103097.06;5099526;27;47259;-83
2022/01/27 07:31:19;;;;;;;;;50.25;38.25;;;;;6.41;62.79;103096.25;5099608;27;45302;-84
2022/01/27 07:33:45;;;;;;;;;54.25;41.25;;;;;6.38;62.81;103098.78;5100094;27;45244;-84
2022/01/27 07:36:10;;;;;;;;;51.50;39.00;;;;;6.39;62.64;103098.81;5102249;27;45490;-84
2022/01/27 07:38:36;;;;;;;;;47.00;37.00;;;;;6.43;62.57;103101.50;5108545;27;45477;-83
2022/01/27 07:41:01;;;;;;;;;50.25;39.25;;;;;6.41;63.05;103089.28;5103299;27;45335;-84
2022/01/27 07:43:26;;;;;;;;;55.75;43.75;;;;;6.44;62.50;103088.47;5096639;27;45254;-84
2022/01/27 07:45:52;;;;;;;;;56.75;40.50;;;;;6.45;62.34;103091.94;5096842;27;45519;-85
2022/01/27 07:48:17;;;;;;;;;56.25;42.00;;;;;6.41;62.97;103088.41;5100702;27;45438;-84
2022/01/27 07:50:44;;;;;;;;;52.50;40.75;;;;;6.42;62.53;103095.38;5091485;27;45997;-84
2022/01/27 07:53:09;;;;;;;;;52.00;41.50;;;;;6.41;62.59;103091.91;5090143;27;45259;-84
2022/01/27 07:55:34;;;;;;;;;54.25;39.25;;;;;6.45;62.39;103097.19;5097514;27;45416;-84
2022/01/27 07:58:00;;;;;;;;;61.00;44.25;;;;;6.44;62.78;103098.94;5099734;27;45631;-84
2022/01/27 08:00:25;;;;;;;;;58.00;44.50;;;;;6.44;62.59;103087.59;5098684;27;46908;-84
2022/01/27 08:02:51;;;;;;;;;54.25;43.75;;;;;6.44;62.65;103092.81;5092288;27;45301;-83
2022/01/27 08:05:16;;;;;;;;;56.75;40.00;;;;;6.44;62.79;103091.09;5100454;27;45546;-83
2022/01/27 08:07:41;;;;;;;;;54.50;43.25;;;;;6.43;62.28;103093.66;5099183;27;48574;-83
2022/01/27 08:10:07;;;;;;;;;55.25;41.50;;;;;6.44;62.55;103100.66;5099356;27;45896;-84
2022/01/27 08:12:38;;;;;;;;;59.00;44.75;;;;;6.46;62.58;103101.56;5099254;27;45270;-83
2022/01/27 08:15:04;;;;;;;;;59.75;42.75;;;;;6.45;62.83;103095.44;5098014;27;45646;-83
2022/01/27 08:17:30;;;;;;;;;55.50;42.50;;;;;6.46;62.82;103097.22;5091604;27;45598;-83
2022/01/27 08:19:55;;;;;;;;;52.75;40.75;;;;;6.48;62.90;103100.75;5115900;27;45273;-83
2022/01/27 08:22:20;;;;;;;;;56.00;41.25;;;;;6.49;62.58;103097.31;5099767;27;45245;-83
2022/01/27 08:24:46;;;;;;;;;54.50;38.00;;;;;6.50;62.47;103104.28;5100313;27;45350;-83
2022/01/27 08:27:15;;;;;;;;;52.50;41.00;;;;;6.53;62.70;103108.69;5100076;27;45271;-83
2022/01/27 08:29:46;;;;;;;;;59.00;44.75;;;;;6.50;62.67;103096.44;5092055;27;45377;-83
2022/01/27 08:32:17;;;;;;;;;56.25;40.75;;;;;6.57;62.58;103114.88;5099745;27;45443;-83
2022/01/27 08:34:44;;;;;;;;;58.75;43.00;;;;;6.53;62.20;103101.75;5100019;27;45309;-83
2022/01/27 08:37:14;;;;;;;;;54.25;43.75;;;;;6.57;62.11;103107.03;5100428;27;46266;-83
2022/01/27 08:39:40;;;;;;;;;55.00;43.00;;;;;6.57;62.67;103112.28;5100435;27;45432;-83
2022/01/27 08:42:07;;;;;;;;;54.75;41.25;;;;;6.59;62.44;103113.19;5092700;27;46979;-83
2022/01/27 08:44:33;;;;;;;;;56.75;41.00;;;;;6.59;62.22;103108.81;5098246;27;45410;-83
2022/01/27 08:46:59;;;;;;;;;56.50;44.00;;;;;6.59;62.37;103107.97;5094921;27;45661;-83
2022/01/27 08:49:26;;;;;;;;;52.00;41.25;;;;;6.62;62.43;103108.88;5094496;27;45902;-84
2022/01/27 08:51:51;;;;;;;;;55.25;43.75;;;;;6.63;62.19;103107.16;5108907;27;45604;-83
2022/01/27 08:54:17;;;;;;;;;56.00;42.50;;;;;6.62;62.45;103106.28;5091885;27;45201;-83
2022/01/27 08:56:43;;;;;;;;;59.50;45.75;;;;;6.64;62.29;103101.97;5098620;27;46519;-83
2022/01/27 08:59:08;;;;;;;;;54.25;43.50;;;;;6.67;62.69;103102.91;5099910;27;45448;-83
2022/01/27 09:01:34;;;;;;;;;53.00;44.00;;;;;6.67;62.07;103085.47;5096677;27;45355;-83
2022/01/27 09:03:59;;;;;;;;;65.00;45.50;;;;;6.68;62.16;103100.31;5097230;27;45323;-83
2022/01/27 09:06:28;;;;;;;;;61.75;44.00;;;;;6.69;62.05;103088.13;5099857;27;45238;-83
2022/01/27 09:08:54;;;;;;;;;55.75;42.25;;;;;6.73;62.44;103096.06;5099179;27;45772;-83
2022/01/27 09:11:20;;;;;;;;;58.00;43.00;;;;;6.73;62.24;103088.22;5100388;27;45445;-83
2022/01/27 09:13:45;;;;;;;;;56.25;43.00;;;;;6.77;61.84;103090.88;5099040;27;45487;-83
2022/01/27 09:16:11;;;;;;;;;60.50;46.75;;;;;6.77;62.86;103091.78;5099652;27;46535;-83
2022/01/27 09:18:37;;;;;;;;;61.50;46.25;;;;;6.78;62.26;103088.31;5097858;27;45597;-83
2022/01/27 09:21:12;;;;;;;;;55.75;44.00;;;;;6.80;62.18;103080.50;5104339;27;45377;-83
2022/01/27 09:23:38;;;;;;;;;57.00;43.00;;;;;6.82;62.04;103073.56;5099809;27;45259;-83
2022/01/27 09:26:05;;;;;;;;;60.25;43.00;;;;;6.87;62.41;103071.94;5092932;27;46133;-83
2022/01/27 09:28:30;;;;;;;;;50.75;40.00;;;;;6.89;62.09;103070.22;5096902;27;46019;-83
2022/01/27 09:30:56;;;;;;;;;55.00;44.00;;;;;6.88;62.05;103063.25;5097349;27;45537;-83
2022/01/27 09:33:22;;;;;;;;;58.00;41.00;;;;;6.92;62.40;103065.06;5102633;27;45686;-83
2022/01/27 09:35:48;;;;;;;;;55.00;40.75;;;;;6.92;62.37;103062.44;5100195;27;46792;-83
2022/01/27 09:38:14;;;;;;;;;56.25;40.00;;;;;6.95;62.15;103072.97;5096216;27;45529;-83
2022/01/27 09:40:39;;;;;;;;;56.25;43.00;;;;;7.00;62.12;103074.78;5097258;27;45796;-83
2022/01/27 09:43:05;;;;;;;;;58.50;43.75;;;;;7.05;62.23;103073.16;5102424;27;45532;-83
2022/01/27 09:45:36;;;;;;;;;58.25;45.50;;;;;7.06;62.32;103067.09;5101953;27;45405;-83
2022/01/27 09:48:12;;;;;;;;;54.75;40.50;;;;;7.12;61.98;103055.84;5091273;27;45346;-83
2022/01/27 09:53:13;;;;;;;;;55.75;41.75;;;;;7.17;61.80;103065.56;5102767;27;45370;-82
2022/01/27 09:55:39;;;;;;;;;57.75;40.25;;;;;7.25;61.98;103067.44;5101295;27;47240;-83
2022/01/27 09:58:06;;;;;;;;;64.50;45.00;;;;;7.26;62.17;103059.59;5102752;27;45375;-83
2022/01/27 10:00:32;;;;;;;;;57.50;43.50;;;;;7.31;62.01;103054.44;5104958;27;45213;-83
2022/01/27 10:03:09;;;;;;;;;56.75;40.75;;;;;7.35;62.08;103060.63;5114170;27;45541;-83
2022/01/27 10:05:35;;;;;;;;;48.00;39.25;;;;;7.39;61.61;103065.94;5102478;27;45577;-83
2022/01/27 10:08:05;;;;;;;;;52.50;42.25;;;;;7.41;62.01;103063.34;5100826;27;47268;-83
2022/01/27 10:10:35;;;;;;;;;55.75;41.75;;;;;7.47;62.02;103062.59;5102765;27;45253;-83
2022/01/27 10:13:03;;;;;;;;;53.75;39.75;;;;;7.47;60.31;103058.25;5101876;27;45475;-83
2022/01/27 10:15:29;;;;;;;;;51.75;42.00;;;;;7.43;61.44;103059.91;5101886;27;46423;-83
2022/01/27 10:18:15;;;;;;;;;55.00;41.75;;;;;7.52;61.42;103067.06;5109838;27;45540;-83
2022/01/27 10:20:43;;;;;;;;;54.75;42.25;;;;;7.56;61.78;103061.84;5099833;27;45330;-83
2022/01/27 10:23:23;;;;;;;;;54.75;39.50;;;;;7.58;61.84;103065.41;5101991;27;45434;-82
2022/01/27 10:25:54;;;;;;;;;54.25;40.50;;;;;7.62;61.60;103064.59;5086926;27;45387;-83
2022/01/27 10:29:31;;;;;;;;;56.25;43.75;;;;;7.64;61.72;103068.13;5095705;27;46320;-83
2022/01/27 10:31:23;;;;;;;;;55.75;40.75;;;;;7.66;61.30;103071.63;5097870;27;46131;-83
2022/01/27 10:34:01;;;;;;;;;58.25;43.50;;;;;7.71;61.18;103069.09;5094771;27;45402;-82
2022/01/27 10:36:40;;;;;;;;;57.75;42.00;;;;;7.72;61.35;103063.91;5101450;27;46294;-83
2022/01/27 10:39:15;;;;;;;;;53.00;40.50;;;;;7.78;61.17;103070.94;5099970;27;45395;-83
2022/01/27 10:42:05;;;;;;;;;53.50;41.25;;;;;7.84;61.19;103076.31;5101957;27;45261;-83
2022/01/27 10:44:37;;;;;;;;;57.50;42.00;;;;;7.87;61.19;103068.50;5091074;27;45491;-83
2022/01/27 10:47:22;;;;;;;;;54.00;41.00;;;;;7.90;61.34;103062.44;5101453;27;45330;-83
2022/01/27 10:49:56;;;;;;;;;61.25;44.00;;;;;7.95;61.11;103062.50;5102039;27;45250;-83
2022/01/27 10:52:46;;;;;;;;;44.25;37.50;;;;;7.99;61.43;103046.88;5101810;27;45233;-83
2022/01/27 10:55:18;;;;;;;;;59.25;42.75;;;;;8.06;61.28;103057.41;5101637;27;45511;-82
2022/01/27 10:57:49;;;;;;;;;53.25;40.75;;;;;8.04;60.86;103049.56;5101871;27;45391;-83
2022/01/27 11:00:16;;;;;;;;;55.25;39.25;;;;;8.12;60.87;103051.41;5101341;27;45519;-83
2022/01/27 11:02:58;;;;;;;;;53.25;40.00;;;;;8.15;60.81;103048.84;5099337;27;45391;-83
2022/01/27 11:05:31;;;;;;;;;50.50;41.25;;;;;8.15;60.74;103043.59;5101132;27;45318;-83
2022/01/27 11:07:58;;;;;;;;;58.50;41.75;;;;;8.21;60.67;103046.28;5100973;27;45605;-83
2022/01/27 11:10:23;;;;;;;;;55.25;40.00;;;;;8.18;60.82;103048.84;5101072;27;45798;-83
2022/01/27 11:12:50;;;;;;;;;54.00;40.00;;;;;8.18;61.21;103049.75;5100048;27;45518;-82
2022/01/27 11:15:18;;;;;;;;;51.50;40.00;;;;;8.21;60.54;103048.91;5099543;27;46085;-82
2022/01/27 11:17:45;;;;;;;;;56.75;42.00;;;;;8.24;61.24;103051.59;5099776;27;45645;-83
2022/01/27 11:28:05;;;;;;;;;39.00;36.00;;;;;8.32;60.45;103049.94;5101038;27;45242;-83
2022/01/27 11:30:43;;;;;;;;;53.75;42.25;;;;;8.40;60.43;103057.03;5101482;27;45437;-83
2022/01/27 11:33:13;;;;;;;;;53.00;40.25;;;;;8.38;60.37;103048.25;5100506;27;45380;-83
2022/01/27 11:35:40;;;;;;;;;54.75;40.50;;;;;8.37;60.87;103038.66;5099464;27;45238;-83
2022/01/27 11:38:06;;;;;;;;;53.50;38.25;;;;;8.37;60.78;103036.88;5101411;27;45269;-83
2022/01/27 11:40:37;;;;;;;;;51.75;40.00;;;;;8.39;60.15;103040.44;5101054;27;45821;-83
2022/01/27 11:43:04;;;;;;;;;50.00;38.00;;;;;8.41;60.65;103029.97;5087493;27;45246;-83
2022/01/27 11:45:36;;;;;;;;;52.50;40.00;;;;;8.43;60.33;103026.50;5101060;27;45257;-83
2022/01/27 11:48:25;;;;;;;;;52.50;40.00;;;;;8.51;61.27;103024.00;5100317;27;46403;-83
2022/01/27 11:50:59;;;;;;;;;54.25;41.50;;;;;8.55;60.88;103023.16;5099103;27;45491;-83
2022/01/27 11:53:40;;;;;;;;;56.75;40.50;;;;;8.57;61.02;103017.91;5101306;27;45172;-83
2022/01/27 11:56:06;;;;;;;;;54.25;41.00;;;;;8.59;60.57;103015.38;5100932;27;45341;-83
2022/01/27 11:58:46;;;;;;;;;51.00;38.00;;;;;8.58;60.25;103006.63;5103817;27;46120;-83
2022/01/27 12:01:15;;;;;;;;;52.75;41.50;;;;;8.60;60.78;103001.38;5102239;27;45347;-82
2022/01/27 12:04:07;;;;;;;;;51.00;41.00;;;;;8.61;60.39;103003.16;5100777;27;45366;-83